Somers Point, NJ (08244)

6:33 PM EDT on August 30, 2015 (GMT -0400)
GSP Exit 30 Ocean Heights | | Change Station
CLOSE
Current Station
Personal Weather Station
Location: Somers Point, NJ
Elevation: 21 ft
Nearby Weather Stations

Elev 21 ft 39.32 °N, 74.61 °W | Updated 22 seconds ago

Partly Cloudy
Partly Cloudy
78.8 °F
Feels Like 81 °F
N
0.0
Wind Variable Wind from NW
Gusts 0.0 mph

Today
High -- | Low -- °F
--% Chance of Precip.
Yesterday
High -- | Low -- °F
Precip. -- in
6:24 AM 7:32 PM
Full, 98% visible
Pressure 30.06 in
Visibility 10.0 miles
Clouds Clear
Heat Index 81 °F
Dew Point 70 °F
Humidity 75%
Rainfall 0.00 in
Snow Depth Not available.
UV 1.0 out of 12
Pollen 9.80 out of 12
Air Quality Not available.
Flu Activity Not available.
METAR KACY 302154Z AUTO 22007KT 10SM CLR 28/18 A3006 RMK AO2 SLP178 T02830178 TSNO $
Pressure 30.06 in
Visibility 10.0 miles
Clouds Clear
Heat Index 81 °F
Dew Point 70 °F
Humidity 75%
Rainfall 0.00 in
Snow Depth Not available.
UV 1.0 out of 12
Pollen 9.80 out of 12
Air Quality Not available.
Flu Activity Not available.
METAR KACY 302154Z AUTO 22007KT 10SM CLR 28/18 A3006 RMK AO2 SLP178 T02830178 TSNO $

10-Day Weather Forecast

×

Almanac

Astronomy

Aug. 30, 2015 Rise Set
Actual Time
Civil Twilight
Nautical Twilight
Astronomical Twilight
Moon
Length of Visible Light
Length of Day
Tomorrow will be .
, % of the Moon is Illuminated

Today's Extremes

State Highs State Lows

Community

WunderPhotos

Upload Photos

1,851,074 photos uploaded!

WunderBlogs® & News

Nearby

Air Quality

  Air Quality AQ Index Pollutant
Not available.

Snow Depth

Station Depth Elevation

Earthquake Activity

City Distance Mag. Time & Date
Minimum magnitude displayed is 2.5.

Coastal Water Temperatures

Place Temperature

Stations

Nearby Weather Stations

Station Location Temp. Windchill Dew Point Humidity Wind Precip. Elev Updated Type